sensor_id;sensor_type;location;lat;lon;timestamp;P1;durP1;ratioP1;P2;durP2;ratioP2
3050;SDS011;1535;51.098;6.414;2023-06-14T00:00:05;13.63;;;13.13;;
3050;SDS011;1535;51.098;6.414;2023-06-14T00:02:33;13.20;;;12.70;;
3050;SDS011;1535;51.098;6.414;2023-06-14T00:05:00;14.17;;;13.57;;
3050;SDS011;1535;51.098;6.414;2023-06-14T00:07:34;14.30;;;13.70;;
3050;SDS011;1535;51.098;6.414;2023-06-14T00:10:03;13.37;;;12.87;;
3050;SDS011;1535;51.098;6.414;2023-06-14T00:12:31;13.80;;;13.20;;
3050;SDS011;1535;51.098;6.414;2023-06-14T00:14:58;13.43;;;12.93;;
3050;SDS011;1535;51.098;6.414;2023-06-14T00:17:26;16.00;;;15.30;;
3050;SDS011;1535;51.098;6.414;2023-06-14T00:19:55;13.03;;;12.53;;
3050;SDS011;1535;51.098;6.414;2023-06-14T00:22:23;13.00;;;12.50;;
3050;SDS011;1535;51.098;6.414;2023-06-14T00:24:50;13.47;;;12.97;;
3050;SDS011;1535;51.098;6.414;2023-06-14T00:27:19;12.90;;;12.40;;
3050;SDS011;1535;51.098;6.414;2023-06-14T00:29:47;13.10;;;12.60;;
3050;SDS011;1535;51.098;6.414;2023-06-14T00:32:13;13.43;;;12.93;;
3050;SDS011;1535;51.098;6.414;2023-06-14T00:34:40;12.90;;;12.40;;
3050;SDS011;1535;51.098;6.414;2023-06-14T00:37:08;13.23;;;12.73;;
3050;SDS011;1535;51.098;6.414;2023-06-14T00:39:35;13.27;;;12.77;;
3050;SDS011;1535;51.098;6.414;2023-06-14T00:42:03;13.23;;;12.73;;
3050;SDS011;1535;51.098;6.414;2023-06-14T00:44:32;12.73;;;12.23;;
3050;SDS011;1535;51.098;6.414;2023-06-14T00:47:00;12.83;;;12.33;;
3050;SDS011;1535;51.098;6.414;2023-06-14T00:49:27;12.87;;;12.37;;
3050;SDS011;1535;51.098;6.414;2023-06-14T00:51:56;13.17;;;12.67;;
3050;SDS011;1535;51.098;6.414;2023-06-14T00:54:24;12.70;;;12.20;;
3050;SDS011;1535;51.098;6.414;2023-06-14T00:56:50;13.40;;;12.90;;
3050;SDS011;1535;51.098;6.414;2023-06-14T00:59:17;13.40;;;12.90;;
3050;SDS011;1535;51.098;6.414;2023-06-14T01:01:47;12.67;;;12.17;;
3050;SDS011;1535;51.098;6.414;2023-06-14T01:04:14;13.13;;;12.63;;
3050;SDS011;1535;51.098;6.414;2023-06-14T01:06:43;13.30;;;12.80;;
3050;SDS011;1535;51.098;6.414;2023-06-14T01:09:18;12.97;;;12.47;;
3050;SDS011;1535;51.098;6.414;2023-06-14T01:11:50;13.30;;;12.80;;
3050;SDS011;1535;51.098;6.414;2023-06-14T01:14:24;13.17;;;12.67;;
3050;SDS011;1535;51.098;6.414;2023-06-14T01:16:54;12.40;;;11.90;;
3050;SDS011;1535;51.098;6.414;2023-06-14T01:19:22;12.63;;;12.13;;
3050;SDS011;1535;51.098;6.414;2023-06-14T01:21:50;12.60;;;12.10;;
3050;SDS011;1535;51.098;6.414;2023-06-14T01:24:19;12.43;;;11.93;;
3050;SDS011;1535;51.098;6.414;2023-06-14T01:26:51;12.57;;;12.07;;
3050;SDS011;1535;51.098;6.414;2023-06-14T01:29:21;12.70;;;12.20;;
3050;SDS011;1535;51.098;6.414;2023-06-14T01:31:50;12.30;;;11.80;;
3050;SDS011;1535;51.098;6.414;2023-06-14T01:34:19;12.70;;;12.20;;
3050;SDS011;1535;51.098;6.414;2023-06-14T01:36:46;12.63;;;12.13;;
3050;SDS011;1535;51.098;6.414;2023-06-14T01:39:15;12.60;;;12.10;;
3050;SDS011;1535;51.098;6.414;2023-06-14T01:41:45;12.97;;;12.47;;
3050;SDS011;1535;51.098;6.414;2023-06-14T01:44:13;12.93;;;12.43;;
3050;SDS011;1535;51.098;6.414;2023-06-14T01:46:42;13.17;;;12.67;;
3050;SDS011;1535;51.098;6.414;2023-06-14T01:49:11;13.23;;;12.73;;
3050;SDS011;1535;51.098;6.414;2023-06-14T01:51:37;13.57;;;13.07;;
3050;SDS011;1535;51.098;6.414;2023-06-14T01:54:05;13.00;;;12.50;;
3050;SDS011;1535;51.098;6.414;2023-06-14T01:56:33;13.40;;;12.90;;
3050;SDS011;1535;51.098;6.414;2023-06-14T01:59:00;13.23;;;12.73;;
3050;SDS011;1535;51.098;6.414;2023-06-14T02:01:26;13.23;;;12.73;;
3050;SDS011;1535;51.098;6.414;2023-06-14T02:03:53;13.60;;;13.10;;
3050;SDS011;1535;51.098;6.414;2023-06-14T02:06:20;13.40;;;12.87;;
3050;SDS011;1535;51.098;6.414;2023-06-14T02:08:48;12.90;;;12.40;;
3050;SDS011;1535;51.098;6.414;2023-06-14T02:11:15;13.43;;;12.93;;
3050;SDS011;1535;51.098;6.414;2023-06-14T02:13:43;14.27;;;13.67;;
3050;SDS011;1535;51.098;6.414;2023-06-14T02:16:10;13.80;;;13.30;;
3050;SDS011;1535;51.098;6.414;2023-06-14T02:18:39;13.60;;;13.10;;
3050;SDS011;1535;51.098;6.414;2023-06-14T02:21:06;14.00;;;13.40;;
3050;SDS011;1535;51.098;6.414;2023-06-14T02:23:33;13.63;;;13.13;;
3050;SDS011;1535;51.098;6.414;2023-06-14T02:26:01;15.83;;;15.17;;
3050;SDS011;1535;51.098;6.414;2023-06-14T02:28:29;13.83;;;13.30;;
3050;SDS011;1535;51.098;6.414;2023-06-14T02:30:58;14.60;;;14.00;;
3050;SDS011;1535;51.098;6.414;2023-06-14T02:33:25;14.27;;;13.67;;
3050;SDS011;1535;51.098;6.414;2023-06-14T02:35:52;13.63;;;13.13;;
3050;SDS011;1535;51.098;6.414;2023-06-14T02:38:21;13.70;;;13.20;;
3050;SDS011;1535;51.098;6.414;2023-06-14T02:40:48;14.47;;;13.87;;
3050;SDS011;1535;51.098;6.414;2023-06-14T02:43:16;14.40;;;13.80;;
3050;SDS011;1535;51.098;6.414;2023-06-14T02:45:43;13.70;;;13.20;;
3050;SDS011;1535;51.098;6.414;2023-06-14T02:48:12;13.67;;;13.13;;
3050;SDS011;1535;51.098;6.414;2023-06-14T02:50:39;14.03;;;13.43;;
3050;SDS011;1535;51.098;6.414;2023-06-14T02:53:06;14.30;;;13.70;;
3050;SDS011;1535;51.098;6.414;2023-06-14T02:55:33;14.20;;;13.60;;
3050;SDS011;1535;51.098;6.414;2023-06-14T02:58:04;14.00;;;13.40;;
3050;SDS011;1535;51.098;6.414;2023-06-14T03:00:30;14.10;;;13.50;;
3050;SDS011;1535;51.098;6.414;2023-06-14T03:02:57;14.10;;;13.50;;
3050;SDS011;1535;51.098;6.414;2023-06-14T03:05:28;13.67;;;13.10;;
3050;SDS011;1535;51.098;6.414;2023-06-14T03:07:55;14.60;;;14.00;;
3050;SDS011;1535;51.098;6.414;2023-06-14T03:10:22;14.27;;;13.67;;
3050;SDS011;1535;51.098;6.414;2023-06-14T03:12:50;14.17;;;13.57;;
3050;SDS011;1535;51.098;6.414;2023-06-14T03:15:17;14.57;;;13.87;;
3050;SDS011;1535;51.098;6.414;2023-06-14T03:17:44;15.10;;;14.50;;
3050;SDS011;1535;51.098;6.414;2023-06-14T03:20:15;14.90;;;14.20;;
3050;SDS011;1535;51.098;6.414;2023-06-14T03:22:43;13.77;;;13.17;;
3050;SDS011;1535;51.098;6.414;2023-06-14T03:25:12;15.17;;;14.47;;
3050;SDS011;1535;51.098;6.414;2023-06-14T03:27:40;14.20;;;13.60;;
3050;SDS011;1535;51.098;6.414;2023-06-14T03:30:08;14.43;;;13.83;;
3050;SDS011;1535;51.098;6.414;2023-06-14T03:32:35;14.20;;;13.60;;
3050;SDS011;1535;51.098;6.414;2023-06-14T03:35:03;14.30;;;13.70;;
3050;SDS011;1535;51.098;6.414;2023-06-14T03:37:30;13.83;;;13.23;;
3050;SDS011;1535;51.098;6.414;2023-06-14T03:39:59;14.10;;;13.50;;
3050;SDS011;1535;51.098;6.414;2023-06-14T03:42:26;14.40;;;13.80;;
3050;SDS011;1535;51.098;6.414;2023-06-14T03:44:53;13.90;;;13.30;;
3050;SDS011;1535;51.098;6.414;2023-06-14T03:47:20;13.83;;;13.23;;
3050;SDS011;1535;51.098;6.414;2023-06-14T03:49:47;14.43;;;13.83;;
3050;SDS011;1535;51.098;6.414;2023-06-14T03:52:14;14.77;;;14.17;;
3050;SDS011;1535;51.098;6.414;2023-06-14T03:54:42;14.20;;;13.60;;
3050;SDS011;1535;51.098;6.414;2023-06-14T03:57:11;14.17;;;13.57;;
3050;SDS011;1535;51.098;6.414;2023-06-14T03:59:39;14.40;;;13.80;;
3050;SDS011;1535;51.098;6.414;2023-06-14T04:02:06;13.40;;;12.90;;
3050;SDS011;1535;51.098;6.414;2023-06-14T04:04:34;14.40;;;13.80;;
3050;SDS011;1535;51.098;6.414;2023-06-14T04:07:02;13.83;;;13.23;;
3050;SDS011;1535;51.098;6.414;2023-06-14T04:09:30;13.80;;;13.23;;
3050;SDS011;1535;51.098;6.414;2023-06-14T04:11:57;16.80;;;16.00;;
3050;SDS011;1535;51.098;6.414;2023-06-14T04:14:26;14.20;;;13.60;;
3050;SDS011;1535;51.098;6.414;2023-06-14T04:16:53;15.30;;;14.50;;
3050;SDS011;1535;51.098;6.414;2023-06-14T04:19:20;14.57;;;13.97;;
3050;SDS011;1535;51.098;6.414;2023-06-14T04:21:46;15.20;;;14.60;;
3050;SDS011;1535;51.098;6.414;2023-06-14T04:24:13;15.40;;;14.70;;
3050;SDS011;1535;51.098;6.414;2023-06-14T04:26:41;14.67;;;14.07;;
3050;SDS011;1535;51.098;6.414;2023-06-14T04:29:09;15.23;;;14.53;;
3050;SDS011;1535;51.098;6.414;2023-06-14T04:31:40;15.43;;;14.70;;
3050;SDS011;1535;51.098;6.414;2023-06-14T04:34:07;14.27;;;13.67;;
3050;SDS011;1535;51.098;6.414;2023-06-14T04:36:40;15.80;;;15.10;;
3050;SDS011;1535;51.098;6.414;2023-06-14T04:39:14;15.90;;;14.73;;
3050;SDS011;1535;51.098;6.414;2023-06-14T04:41:42;15.37;;;14.67;;
3050;SDS011;1535;51.098;6.414;2023-06-14T04:44:09;15.30;;;14.60;;
3050;SDS011;1535;51.098;6.414;2023-06-14T04:46:37;14.57;;;13.97;;
3050;SDS011;1535;51.098;6.414;2023-06-14T04:49:12;16.27;;;15.57;;
3050;SDS011;1535;51.098;6.414;2023-06-14T04:51:39;15.43;;;14.73;;
3050;SDS011;1535;51.098;6.414;2023-06-14T04:54:06;14.77;;;14.17;;
3050;SDS011;1535;51.098;6.414;2023-06-14T04:56:35;15.50;;;14.80;;
3050;SDS011;1535;51.098;6.414;2023-06-14T04:59:03;15.70;;;15.00;;
3050;SDS011;1535;51.098;6.414;2023-06-14T05:01:30;14.77;;;14.17;;
3050;SDS011;1535;51.098;6.414;2023-06-14T05:03:58;16.83;;;16.00;;
3050;SDS011;1535;51.098;6.414;2023-06-14T05:06:26;15.50;;;14.80;;
3050;SDS011;1535;51.098;6.414;2023-06-14T05:08:53;16.50;;;15.60;;
3050;SDS011;1535;51.098;6.414;2023-06-14T05:11:20;15.70;;;14.80;;
3050;SDS011;1535;51.098;6.414;2023-06-14T05:13:49;15.23;;;14.53;;
3050;SDS011;1535;51.098;6.414;2023-06-14T05:16:16;15.90;;;15.20;;
3050;SDS011;1535;51.098;6.414;2023-06-14T05:18:44;15.20;;;14.50;;
3050;SDS011;1535;51.098;6.414;2023-06-14T05:21:13;15.67;;;14.97;;
3050;SDS011;1535;51.098;6.414;2023-06-14T05:23:43;15.33;;;14.63;;
3050;SDS011;1535;51.098;6.414;2023-06-14T05:26:10;15.17;;;14.50;;
3050;SDS011;1535;51.098;6.414;2023-06-14T05:28:38;15.20;;;14.60;;
3050;SDS011;1535;51.098;6.414;2023-06-14T05:31:05;16.00;;;15.30;;
3050;SDS011;1535;51.098;6.414;2023-06-14T05:33:32;15.60;;;14.90;;
3050;SDS011;1535;51.098;6.414;2023-06-14T05:35:59;15.67;;;14.97;;
3050;SDS011;1535;51.098;6.414;2023-06-14T05:38:41;15.00;;;14.40;;
3050;SDS011;1535;51.098;6.414;2023-06-14T05:41:09;15.20;;;14.50;;
3050;SDS011;1535;51.098;6.414;2023-06-14T05:43:36;15.27;;;14.57;;
3050;SDS011;1535;51.098;6.414;2023-06-14T05:46:04;15.60;;;14.90;;
3050;SDS011;1535;51.098;6.414;2023-06-14T05:48:31;16.23;;;15.53;;
3050;SDS011;1535;51.098;6.414;2023-06-14T05:50:58;16.53;;;15.73;;
3050;SDS011;1535;51.098;6.414;2023-06-14T05:53:25;16.10;;;15.40;;
3050;SDS011;1535;51.098;6.414;2023-06-14T05:55:53;15.90;;;15.20;;
3050;SDS011;1535;51.098;6.414;2023-06-14T05:58:21;15.40;;;14.70;;
3050;SDS011;1535;51.098;6.414;2023-06-14T06:00:48;16.73;;;15.97;;
3050;SDS011;1535;51.098;6.414;2023-06-14T06:03:16;16.20;;;15.50;;
3050;SDS011;1535;51.098;6.414;2023-06-14T06:05:42;16.40;;;15.70;;
3050;SDS011;1535;51.098;6.414;2023-06-14T06:08:10;20.00;;;17.90;;
3050;SDS011;1535;51.098;6.414;2023-06-14T06:10:36;15.87;;;15.17;;
3050;SDS011;1535;51.098;6.414;2023-06-14T06:13:03;16.07;;;15.37;;
3050;SDS011;1535;51.098;6.414;2023-06-14T06:15:31;16.17;;;15.47;;
3050;SDS011;1535;51.098;6.414;2023-06-14T06:17:58;16.50;;;15.70;;
3050;SDS011;1535;51.098;6.414;2023-06-14T06:20:25;16.20;;;15.50;;
3050;SDS011;1535;51.098;6.414;2023-06-14T06:22:54;16.00;;;15.30;;
3050;SDS011;1535;51.098;6.414;2023-06-14T06:25:21;15.80;;;15.10;;
3050;SDS011;1535;51.098;6.414;2023-06-14T06:27:50;17.87;;;17.00;;
3050;SDS011;1535;51.098;6.414;2023-06-14T06:30:17;16.57;;;15.77;;
3050;SDS011;1535;51.098;6.414;2023-06-14T06:32:46;15.70;;;15.00;;
3050;SDS011;1535;51.098;6.414;2023-06-14T06:35:13;17.40;;;16.40;;
3050;SDS011;1535;51.098;6.414;2023-06-14T06:37:41;16.60;;;15.90;;
3050;SDS011;1535;51.098;6.414;2023-06-14T06:40:08;16.63;;;15.83;;
3050;SDS011;1535;51.098;6.414;2023-06-14T06:42:35;18.20;;;17.27;;
3050;SDS011;1535;51.098;6.414;2023-06-14T06:45:02;16.20;;;15.50;;
3050;SDS011;1535;51.098;6.414;2023-06-14T06:47:30;16.83;;;16.03;;
3050;SDS011;1535;51.098;6.414;2023-06-14T06:49:58;16.13;;;15.43;;
3050;SDS011;1535;51.098;6.414;2023-06-14T06:52:25;17.17;;;16.37;;
3050;SDS011;1535;51.098;6.414;2023-06-14T06:54:52;16.47;;;15.67;;
3050;SDS011;1535;51.098;6.414;2023-06-14T06:57:20;16.83;;;16.03;;
3050;SDS011;1535;51.098;6.414;2023-06-14T06:59:48;15.93;;;15.23;;
3050;SDS011;1535;51.098;6.414;2023-06-14T07:02:15;16.57;;;15.87;;
3050;SDS011;1535;51.098;6.414;2023-06-14T07:04:42;16.47;;;15.67;;
3050;SDS011;1535;51.098;6.414;2023-06-14T07:07:10;17.77;;;16.97;;
3050;SDS011;1535;51.098;6.414;2023-06-14T07:09:37;16.87;;;16.07;;
3050;SDS011;1535;51.098;6.414;2023-06-14T07:12:06;16.60;;;15.80;;
3050;SDS011;1535;51.098;6.414;2023-06-14T07:14:33;16.23;;;15.53;;
3050;SDS011;1535;51.098;6.414;2023-06-14T07:17:00;16.10;;;15.40;;
3050;SDS011;1535;51.098;6.414;2023-06-14T07:19:26;16.40;;;15.67;;
3050;SDS011;1535;51.098;6.414;2023-06-14T07:21:53;16.10;;;15.40;;
3050;SDS011;1535;51.098;6.414;2023-06-14T07:24:21;18.23;;;17.23;;
3050;SDS011;1535;51.098;6.414;2023-06-14T07:26:48;17.30;;;16.50;;
3050;SDS011;1535;51.098;6.414;2023-06-14T07:29:16;16.17;;;15.47;;
3050;SDS011;1535;51.098;6.414;2023-06-14T07:31:43;15.80;;;15.10;;
3050;SDS011;1535;51.098;6.414;2023-06-14T07:34:10;16.23;;;15.53;;
3050;SDS011;1535;51.098;6.414;2023-06-14T07:36:37;15.80;;;15.10;;
3050;SDS011;1535;51.098;6.414;2023-06-14T07:39:04;16.17;;;15.47;;
3050;SDS011;1535;51.098;6.414;2023-06-14T07:41:33;17.17;;;16.37;;
3050;SDS011;1535;51.098;6.414;2023-06-14T07:43:59;16.57;;;15.87;;
3050;SDS011;1535;51.098;6.414;2023-06-14T07:46:26;15.83;;;15.13;;
3050;SDS011;1535;51.098;6.414;2023-06-14T07:48:53;15.90;;;15.20;;
3050;SDS011;1535;51.098;6.414;2023-06-14T07:51:20;16.00;;;15.30;;
3050;SDS011;1535;51.098;6.414;2023-06-14T07:53:48;16.20;;;15.50;;
3050;SDS011;1535;51.098;6.414;2023-06-14T07:56:15;16.53;;;15.83;;
3050;SDS011;1535;51.098;6.414;2023-06-14T07:58:43;16.00;;;15.30;;
3050;SDS011;1535;51.098;6.414;2023-06-14T08:01:10;16.70;;;15.90;;
3050;SDS011;1535;51.098;6.414;2023-06-14T08:03:37;16.90;;;16.00;;
3050;SDS011;1535;51.098;6.414;2023-06-14T08:06:04;16.57;;;15.77;;
3050;SDS011;1535;51.098;6.414;2023-06-14T08:08:32;17.40;;;16.60;;
3050;SDS011;1535;51.098;6.414;2023-06-14T08:11:00;16.20;;;15.40;;
3050;SDS011;1535;51.098;6.414;2023-06-14T08:13:26;39.23;;;17.00;;
3050;SDS011;1535;51.098;6.414;2023-06-14T08:15:55;16.77;;;16.00;;
3050;SDS011;1535;51.098;6.414;2023-06-14T08:18:23;15.80;;;15.10;;
3050;SDS011;1535;51.098;6.414;2023-06-14T08:20:50;16.97;;;16.07;;
3050;SDS011;1535;51.098;6.414;2023-06-14T08:23:19;16.13;;;15.43;;
3050;SDS011;1535;51.098;6.414;2023-06-14T08:25:47;16.07;;;15.37;;
3050;SDS011;1535;51.098;6.414;2023-06-14T08:28:14;16.20;;;15.50;;
3050;SDS011;1535;51.098;6.414;2023-06-14T08:30:41;16.57;;;15.87;;
3050;SDS011;1535;51.098;6.414;2023-06-14T08:33:10;16.20;;;15.50;;
3050;SDS011;1535;51.098;6.414;2023-06-14T08:35:37;17.20;;;16.40;;
3050;SDS011;1535;51.098;6.414;2023-06-14T08:38:04;16.57;;;15.87;;
3050;SDS011;1535;51.098;6.414;2023-06-14T08:40:31;16.17;;;15.47;;
3050;SDS011;1535;51.098;6.414;2023-06-14T08:43:04;16.50;;;15.70;;
3050;SDS011;1535;51.098;6.414;2023-06-14T08:45:31;16.20;;;15.50;;
3050;SDS011;1535;51.098;6.414;2023-06-14T08:47:58;16.17;;;15.47;;
3050;SDS011;1535;51.098;6.414;2023-06-14T08:50:27;16.37;;;15.67;;
3050;SDS011;1535;51.098;6.414;2023-06-14T08:52:56;16.23;;;15.53;;
3050;SDS011;1535;51.098;6.414;2023-06-14T08:55:25;16.47;;;15.77;;
3050;SDS011;1535;51.098;6.414;2023-06-14T08:57:55;17.03;;;16.23;;
3050;SDS011;1535;51.098;6.414;2023-06-14T09:00:23;16.47;;;15.77;;
3050;SDS011;1535;51.098;6.414;2023-06-14T09:02:51;16.63;;;15.93;;
3050;SDS011;1535;51.098;6.414;2023-06-14T09:05:23;16.13;;;15.43;;
3050;SDS011;1535;51.098;6.414;2023-06-14T09:07:51;16.80;;;16.10;;
3050;SDS011;1535;51.098;6.414;2023-06-14T09:10:20;17.23;;;16.33;;
3050;SDS011;1535;51.098;6.414;2023-06-14T09:12:47;16.70;;;15.90;;
3050;SDS011;1535;51.098;6.414;2023-06-14T09:15:14;16.57;;;15.87;;
3050;SDS011;1535;51.098;6.414;2023-06-14T09:17:42;16.10;;;15.40;;
3050;SDS011;1535;51.098;6.414;2023-06-14T09:20:10;15.73;;;15.03;;
3050;SDS011;1535;51.098;6.414;2023-06-14T09:22:38;16.17;;;15.30;;
3050;SDS011;1535;51.098;6.414;2023-06-14T09:25:08;16.27;;;15.57;;
3050;SDS011;1535;51.098;6.414;2023-06-14T09:27:37;17.33;;;16.43;;
3050;SDS011;1535;51.098;6.414;2023-06-14T09:30:05;16.67;;;15.87;;
3050;SDS011;1535;51.098;6.414;2023-06-14T09:32:36;16.50;;;15.80;;
3050;SDS011;1535;51.098;6.414;2023-06-14T09:35:04;16.20;;;15.50;;
3050;SDS011;1535;51.098;6.414;2023-06-14T09:37:32;16.73;;;15.93;;
3050;SDS011;1535;51.098;6.414;2023-06-14T09:40:00;15.90;;;15.20;;
3050;SDS011;1535;51.098;6.414;2023-06-14T09:42:30;15.93;;;15.23;;
3050;SDS011;1535;51.098;6.414;2023-06-14T09:45:00;16.17;;;15.47;;
3050;SDS011;1535;51.098;6.414;2023-06-14T09:47:29;15.80;;;15.10;;
3050;SDS011;1535;51.098;6.414;2023-06-14T09:49:56;16.03;;;15.33;;
3050;SDS011;1535;51.098;6.414;2023-06-14T09:52:25;16.53;;;15.83;;
3050;SDS011;1535;51.098;6.414;2023-06-14T09:54:53;16.93;;;16.13;;
3050;SDS011;1535;51.098;6.414;2023-06-14T09:57:23;15.40;;;14.80;;
3050;SDS011;1535;51.098;6.414;2023-06-14T09:59:53;15.77;;;15.07;;
3050;SDS011;1535;51.098;6.414;2023-06-14T10:02:24;15.97;;;15.27;;
3050;SDS011;1535;51.098;6.414;2023-06-14T10:04:55;17.43;;;15.67;;
3050;SDS011;1535;51.098;6.414;2023-06-14T10:07:25;15.87;;;15.17;;
3050;SDS011;1535;51.098;6.414;2023-06-14T10:09:55;16.47;;;15.77;;
3050;SDS011;1535;51.098;6.414;2023-06-14T10:12:23;16.60;;;15.90;;
3050;SDS011;1535;51.098;6.414;2023-06-14T10:14:52;16.70;;;16.00;;
3050;SDS011;1535;51.098;6.414;2023-06-14T10:17:26;16.50;;;15.80;;
3050;SDS011;1535;51.098;6.414;2023-06-14T10:20:03;16.13;;;15.43;;
3050;SDS011;1535;51.098;6.414;2023-06-14T10:22:41;16.03;;;15.33;;
3050;SDS011;1535;51.098;6.414;2023-06-14T10:25:13;16.83;;;15.83;;
3050;SDS011;1535;51.098;6.414;2023-06-14T10:27:53;16.50;;;15.80;;
3050;SDS011;1535;51.098;6.414;2023-06-14T10:30:29;17.30;;;16.50;;
3050;SDS011;1535;51.098;6.414;2023-06-14T10:33:05;16.20;;;15.50;;
3050;SDS011;1535;51.098;6.414;2023-06-14T10:35:33;16.27;;;15.57;;
3050;SDS011;1535;51.098;6.414;2023-06-14T10:38:07;15.60;;;14.97;;
3050;SDS011;1535;51.098;6.414;2023-06-14T10:40:34;15.87;;;15.17;;
3050;SDS011;1535;51.098;6.414;2023-06-14T10:43:06;15.93;;;15.23;;
3050;SDS011;1535;51.098;6.414;2023-06-14T10:46:12;16.30;;;15.60;;
3050;SDS011;1535;51.098;6.414;2023-06-14T10:48:43;16.00;;;15.30;;
3050;SDS011;1535;51.098;6.414;2023-06-14T10:51:18;16.23;;;15.53;;
3050;SDS011;1535;51.098;6.414;2023-06-14T10:53:46;15.80;;;15.10;;
3050;SDS011;1535;51.098;6.414;2023-06-14T10:56:26;16.00;;;15.30;;
3050;SDS011;1535;51.098;6.414;2023-06-14T10:58:54;15.53;;;14.87;;
3050;SDS011;1535;51.098;6.414;2023-06-14T11:01:34;16.87;;;16.07;;
3050;SDS011;1535;51.098;6.414;2023-06-14T11:04:09;17.60;;;16.07;;
3050;SDS011;1535;51.098;6.414;2023-06-14T11:06:44;16.20;;;15.50;;
3050;SDS011;1535;51.098;6.414;2023-06-14T11:12:19;15.70;;;15.00;;
3050;SDS011;1535;51.098;6.414;2023-06-14T11:14:48;16.40;;;15.70;;
3050;SDS011;1535;51.098;6.414;2023-06-14T11:17:17;16.13;;;15.43;;
3050;SDS011;1535;51.098;6.414;2023-06-14T11:19:44;16.63;;;15.73;;
3050;SDS011;1535;51.098;6.414;2023-06-14T11:22:10;15.33;;;14.73;;
3050;SDS011;1535;51.098;6.414;2023-06-14T11:24:39;15.70;;;15.00;;
3050;SDS011;1535;51.098;6.414;2023-06-14T11:27:06;17.20;;;16.40;;
3050;SDS011;1535;51.098;6.414;2023-06-14T11:29:33;16.47;;;15.67;;
3050;SDS011;1535;51.098;6.414;2023-06-14T11:32:00;16.20;;;15.50;;
3050;SDS011;1535;51.098;6.414;2023-06-14T11:34:28;16.40;;;15.60;;
3050;SDS011;1535;51.098;6.414;2023-06-14T11:36:55;16.30;;;15.60;;
3050;SDS011;1535;51.098;6.414;2023-06-14T11:39:24;16.10;;;15.30;;
3050;SDS011;1535;51.098;6.414;2023-06-14T11:41:52;16.10;;;15.40;;
3050;SDS011;1535;51.098;6.414;2023-06-14T11:44:21;16.10;;;15.40;;
3050;SDS011;1535;51.098;6.414;2023-06-14T11:46:48;15.87;;;15.17;;
3050;SDS011;1535;51.098;6.414;2023-06-14T11:49:15;15.80;;;15.10;;
3050;SDS011;1535;51.098;6.414;2023-06-14T11:51:43;16.20;;;15.50;;
3050;SDS011;1535;51.098;6.414;2023-06-14T11:54:11;16.47;;;15.67;;
3050;SDS011;1535;51.098;6.414;2023-06-14T11:56:38;15.50;;;14.90;;
3050;SDS011;1535;51.098;6.414;2023-06-14T11:59:05;16.00;;;15.30;;
3050;SDS011;1535;51.098;6.414;2023-06-14T12:01:35;15.57;;;14.87;;
3050;SDS011;1535;51.098;6.414;2023-06-14T12:04:04;16.23;;;15.53;;
3050;SDS011;1535;51.098;6.414;2023-06-14T12:06:31;15.40;;;14.80;;
3050;SDS011;1535;51.098;6.414;2023-06-14T12:09:04;16.40;;;15.60;;
3050;SDS011;1535;51.098;6.414;2023-06-14T12:11:32;16.50;;;15.70;;
3050;SDS011;1535;51.098;6.414;2023-06-14T12:14:00;16.57;;;15.87;;
3050;SDS011;1535;51.098;6.414;2023-06-14T12:16:30;16.40;;;15.70;;
3050;SDS011;1535;51.098;6.414;2023-06-14T12:19:00;16.47;;;15.77;;
3050;SDS011;1535;51.098;6.414;2023-06-14T12:21:33;16.20;;;15.50;;
3050;SDS011;1535;51.098;6.414;2023-06-14T12:24:05;16.07;;;15.37;;
3050;SDS011;1535;51.098;6.414;2023-06-14T12:26:37;15.67;;;15.07;;
3050;SDS011;1535;51.098;6.414;2023-06-14T12:29:04;16.27;;;15.47;;
3050;SDS011;1535;51.098;6.414;2023-06-14T12:31:32;16.53;;;15.83;;
3050;SDS011;1535;51.098;6.414;2023-06-14T12:33:58;15.80;;;15.10;;
3050;SDS011;1535;51.098;6.414;2023-06-14T12:36:26;15.73;;;15.03;;
3050;SDS011;1535;51.098;6.414;2023-06-14T12:38:53;16.30;;;15.60;;
3050;SDS011;1535;51.098;6.414;2023-06-14T12:41:21;16.13;;;15.43;;
3050;SDS011;1535;51.098;6.414;2023-06-14T12:43:49;15.87;;;15.17;;
3050;SDS011;1535;51.098;6.414;2023-06-14T12:46:16;16.00;;;15.30;;
3050;SDS011;1535;51.098;6.414;2023-06-14T12:48:44;15.37;;;14.77;;
3050;SDS011;1535;51.098;6.414;2023-06-14T12:51:11;15.90;;;15.20;;
3050;SDS011;1535;51.098;6.414;2023-06-14T12:53:38;16.40;;;15.70;;
3050;SDS011;1535;51.098;6.414;2023-06-14T12:56:06;15.30;;;14.70;;
3050;SDS011;1535;51.098;6.414;2023-06-14T12:58:34;15.20;;;14.60;;
3050;SDS011;1535;51.098;6.414;2023-06-14T13:01:01;15.17;;;14.57;;
3050;SDS011;1535;51.098;6.414;2023-06-14T13:03:28;15.47;;;14.80;;
3050;SDS011;1535;51.098;6.414;2023-06-14T13:05:55;15.20;;;14.60;;
3050;SDS011;1535;51.098;6.414;2023-06-14T13:08:22;15.27;;;14.67;;
3050;SDS011;1535;51.098;6.414;2023-06-14T13:10:48;15.37;;;14.77;;
3050;SDS011;1535;51.098;6.414;2023-06-14T13:13:15;15.10;;;14.50;;
3050;SDS011;1535;51.098;6.414;2023-06-14T13:15:43;15.80;;;15.10;;
3050;SDS011;1535;51.098;6.414;2023-06-14T13:18:11;15.20;;;14.60;;
3050;SDS011;1535;51.098;6.414;2023-06-14T13:20:39;15.10;;;14.50;;
3050;SDS011;1535;51.098;6.414;2023-06-14T13:23:05;15.70;;;15.00;;
3050;SDS011;1535;51.098;6.414;2023-06-14T13:25:32;15.70;;;15.00;;
3050;SDS011;1535;51.098;6.414;2023-06-14T13:27:59;16.27;;;15.57;;
3050;SDS011;1535;51.098;6.414;2023-06-14T13:30:26;14.80;;;14.20;;
3050;SDS011;1535;51.098;6.414;2023-06-14T13:32:55;15.77;;;15.07;;
3050;SDS011;1535;51.098;6.414;2023-06-14T13:35:22;15.13;;;14.53;;
3050;SDS011;1535;51.098;6.414;2023-06-14T13:37:49;16.30;;;15.50;;
3050;SDS011;1535;51.098;6.414;2023-06-14T13:40:17;16.13;;;15.23;;
3050;SDS011;1535;51.098;6.414;2023-06-14T13:42:44;16.60;;;15.43;;
3050;SDS011;1535;51.098;6.414;2023-06-14T13:45:12;15.40;;;14.80;;
3050;SDS011;1535;51.098;6.414;2023-06-14T13:47:39;15.53;;;14.93;;
3050;SDS011;1535;51.098;6.414;2023-06-14T13:50:08;15.20;;;14.60;;
3050;SDS011;1535;51.098;6.414;2023-06-14T13:52:35;15.27;;;14.67;;
3050;SDS011;1535;51.098;6.414;2023-06-14T13:55:02;14.97;;;14.37;;
3050;SDS011;1535;51.098;6.414;2023-06-14T13:57:30;15.40;;;14.70;;
3050;SDS011;1535;51.098;6.414;2023-06-14T13:59:57;15.17;;;14.57;;
3050;SDS011;1535;51.098;6.414;2023-06-14T14:02:26;15.80;;;15.10;;
3050;SDS011;1535;51.098;6.414;2023-06-14T14:04:53;16.10;;;15.40;;
3050;SDS011;1535;51.098;6.414;2023-06-14T14:07:22;15.50;;;14.90;;
3050;SDS011;1535;51.098;6.414;2023-06-14T14:09:49;16.00;;;15.30;;
3050;SDS011;1535;51.098;6.414;2023-06-14T14:12:16;15.50;;;14.90;;
3050;SDS011;1535;51.098;6.414;2023-06-14T14:14:43;15.53;;;14.93;;
3050;SDS011;1535;51.098;6.414;2023-06-14T14:17:11;15.70;;;15.10;;
3050;SDS011;1535;51.098;6.414;2023-06-14T14:19:38;16.27;;;15.57;;
3050;SDS011;1535;51.098;6.414;2023-06-14T14:22:06;15.60;;;15.00;;
3050;SDS011;1535;51.098;6.414;2023-06-14T14:24:34;15.90;;;15.20;;
3050;SDS011;1535;51.098;6.414;2023-06-14T14:27:01;16.73;;;16.00;;
3050;SDS011;1535;51.098;6.414;2023-06-14T14:29:28;17.70;;;16.07;;
3050;SDS011;1535;51.098;6.414;2023-06-14T14:31:55;15.70;;;15.10;;
3050;SDS011;1535;51.098;6.414;2023-06-14T14:34:22;16.40;;;15.60;;
3050;SDS011;1535;51.098;6.414;2023-06-14T14:36:49;16.20;;;15.50;;
3050;SDS011;1535;51.098;6.414;2023-06-14T14:39:16;15.23;;;14.63;;
3050;SDS011;1535;51.098;6.414;2023-06-14T14:41:44;15.80;;;15.20;;
3050;SDS011;1535;51.098;6.414;2023-06-14T14:44:13;16.07;;;15.37;;
3050;SDS011;1535;51.098;6.414;2023-06-14T14:46:40;15.90;;;15.20;;
3050;SDS011;1535;51.098;6.414;2023-06-14T14:49:08;16.93;;;16.23;;
3050;SDS011;1535;51.098;6.414;2023-06-14T14:51:35;16.30;;;15.60;;
3050;SDS011;1535;51.098;6.414;2023-06-14T14:54:05;16.60;;;15.90;;
3050;SDS011;1535;51.098;6.414;2023-06-14T14:56:32;16.07;;;15.37;;